createdAt,value
2022-11-20T00:02:12.190Z,2.50
2022-11-20T00:04:40.610Z,2.28
2022-11-20T00:07:08.846Z,1.83
2022-11-20T00:09:38.337Z,2.70
2022-11-20T00:12:07.172Z,2.90
2022-11-20T00:14:35.399Z,3.55
2022-11-20T00:17:03.431Z,2.28
2022-11-20T00:19:31.604Z,2.15
2022-11-20T00:21:59.779Z,2.10
2022-11-20T00:24:27.925Z,2.33
2022-11-20T00:26:57.463Z,2.65
2022-11-20T00:29:25.649Z,3.15
2022-11-20T00:31:53.859Z,3.75
2022-11-20T00:34:22.043Z,2.25
2022-11-20T00:36:50.159Z,2.70
2022-11-20T00:39:18.588Z,2.13
2022-11-20T00:41:46.922Z,2.33
2022-11-20T00:44:16.401Z,3.05
2022-11-20T00:46:44.657Z,2.38
2022-11-20T00:49:15.084Z,3.67
2022-11-20T00:51:43.307Z,2.50
2022-11-20T00:54:11.383Z,2.85
2022-11-20T00:56:39.771Z,2.90
2022-11-20T00:59:09.249Z,3.08
2022-11-20T01:01:39.943Z,2.80
2022-11-20T01:04:08.124Z,2.58
2022-11-20T01:06:38.047Z,3.83
2022-11-20T01:09:08.399Z,2.10
2022-11-20T01:11:38.905Z,3.15
2022-11-20T01:14:09.022Z,3.00
2022-11-20T01:16:40.903Z,3.35
2022-11-20T01:19:17.367Z,3.13
2022-11-20T01:21:48.228Z,2.92
2022-11-20T01:24:18.702Z,3.97
2022-11-20T01:26:49.592Z,2.25
2022-11-20T01:29:24.302Z,2.75
2022-11-20T01:31:54.507Z,2.67
2022-11-20T01:34:24.474Z,2.97
2022-11-20T01:36:54.431Z,3.00
2022-11-20T01:39:25.105Z,2.60
2022-11-20T01:42:11.977Z,2.78
2022-11-20T01:44:52.241Z,3.50
2022-11-20T01:49:57.342Z,2.97
2022-11-20T01:52:28.430Z,3.25
2022-11-20T01:55:02.713Z,2.85
2022-11-20T01:57:33.851Z,2.60
2022-11-20T02:00:05.661Z,2.42
2022-11-20T02:02:35.723Z,2.88
2022-11-20T02:05:14.305Z,3.63
2022-11-20T02:07:43.397Z,3.35
2022-11-20T02:10:11.617Z,2.55
2022-11-20T02:12:57.367Z,3.83
2022-11-20T02:15:30.100Z,3.20
2022-11-20T02:18:00.463Z,3.50
2022-11-20T02:20:28.908Z,3.60
2022-11-20T02:23:02.854Z,3.33
2022-11-20T02:25:34.577Z,2.47
2022-11-20T02:28:02.798Z,3.40
2022-11-20T02:30:31.021Z,3.88
2022-11-20T02:33:00.606Z,3.42
2022-11-20T02:35:47.229Z,3.25
2022-11-20T02:38:16.763Z,3.53
2022-11-20T02:40:47.736Z,3.72
2022-11-20T02:43:18.868Z,2.75
2022-11-20T02:45:47.089Z,2.80
2022-11-20T02:48:15.470Z,3.38
2022-11-20T02:50:43.907Z,3.25
2022-11-20T02:53:12.094Z,2.63
2022-11-20T02:55:40.224Z,3.00
2022-11-20T02:58:09.620Z,4.40
2022-11-20T03:00:37.706Z,2.95
2022-11-20T03:03:05.969Z,3.03
2022-11-20T03:05:34.244Z,3.20
2022-11-20T03:08:02.367Z,4.03
2022-11-20T03:10:30.808Z,2.67
2022-11-20T03:12:59.115Z,3.83
2022-11-20T03:15:28.637Z,2.72
2022-11-20T03:17:57.450Z,3.83
2022-11-20T03:20:26.301Z,3.05
2022-11-20T03:22:56.529Z,3.55
2022-11-20T03:27:53.791Z,3.13
2022-11-20T03:30:25.021Z,2.88
2022-11-20T03:32:57.290Z,3.40
2022-11-20T03:35:25.751Z,3.22
2022-11-20T03:37:54.065Z,3.28
2022-11-20T03:40:22.425Z,3.05
2022-11-20T03:42:50.689Z,2.97
2022-11-20T03:45:20.645Z,2.63
2022-11-20T03:47:48.838Z,3.60
2022-11-20T03:50:18.652Z,2.35
2022-11-20T03:52:49.670Z,2.55
2022-11-20T03:55:18.115Z,2.53
2022-11-20T03:57:46.451Z,2.25
2022-11-20T04:00:17.188Z,3.03
2022-11-20T04:02:45.697Z,2.35
2022-11-20T04:05:15.277Z,1.85
2022-11-20T04:07:45.074Z,2.40
2022-11-20T04:10:13.467Z,1.63
2022-11-20T04:12:41.733Z,2.70
2022-11-20T04:15:10.845Z,2.20
2022-11-20T04:17:39.269Z,1.55
2022-11-20T04:20:08.833Z,1.73
2022-11-20T04:22:37.116Z,2.22
2022-11-20T04:25:07.585Z,2.15
2022-11-20T04:27:35.762Z,1.85
2022-11-20T04:30:03.991Z,1.60
2022-11-20T04:32:32.171Z,1.65
2022-11-20T04:35:00.281Z,2.67
2022-11-20T04:37:28.510Z,2.03
2022-11-20T04:39:56.687Z,1.40
2022-11-20T04:42:31.983Z,2.20
2022-11-20T04:45:00.135Z,1.85
2022-11-20T04:47:28.422Z,1.25
2022-11-20T04:49:56.555Z,2.78
2022-11-20T04:52:24.734Z,1.05
2022-11-20T04:54:54.506Z,2.45
2022-11-20T04:57:22.603Z,2.38
2022-11-20T04:59:52.215Z,2.17
2022-11-20T05:02:20.655Z,2.45
2022-11-20T05:04:49.075Z,2.00
2022-11-20T05:07:17.727Z,2.08
2022-11-20T05:09:45.899Z,2.25
2022-11-20T05:12:14.384Z,2.58
2022-11-20T05:14:42.495Z,2.45
2022-11-20T05:17:14.513Z,2.70
2022-11-20T05:19:42.645Z,3.38
2022-11-20T05:22:10.767Z,2.30
2022-11-20T05:24:39.392Z,2.25
2022-11-20T05:27:07.526Z,3.63
2022-11-20T05:29:35.697Z,2.20
2022-11-20T05:32:03.814Z,2.80
2022-11-20T05:34:33.470Z,2.55
2022-11-20T05:37:01.655Z,2.72
2022-11-20T05:39:30.081Z,3.25
2022-11-20T05:42:12.072Z,2.40
2022-11-20T05:44:40.231Z,2.83
2022-11-20T05:47:08.750Z,2.47
2022-11-20T05:49:38.376Z,2.45
2022-11-20T05:52:06.554Z,2.88
2022-11-20T05:54:34.978Z,2.63
2022-11-20T05:57:03.640Z,2.58
2022-11-20T05:59:31.843Z,2.90
2022-11-20T06:01:59.948Z,1.55
2022-11-20T06:04:28.307Z,1.73
2022-11-20T06:06:57.963Z,1.52
2022-11-20T06:09:26.271Z,1.83
2022-11-20T06:11:54.491Z,1.15
2022-11-20T06:14:22.757Z,0.95
2022-11-20T06:16:51.029Z,1.92
2022-11-20T06:19:19.479Z,1.58
2022-11-20T06:21:49.713Z,2.47
2022-11-20T06:24:20.019Z,1.70
2022-11-20T06:26:48.118Z,1.92
2022-11-20T06:29:16.427Z,1.83
2022-11-20T06:31:44.898Z,1.38
2022-11-20T06:34:13.029Z,1.92
2022-11-20T06:36:41.142Z,1.65
2022-11-20T06:39:09.522Z,1.75
2022-11-20T06:41:39.141Z,2.00
2022-11-20T06:44:07.507Z,1.98
2022-11-20T06:46:35.692Z,1.20
2022-11-20T06:49:05.040Z,1.73
2022-11-20T06:51:33.149Z,1.38
2022-11-20T06:54:02.060Z,2.20
2022-11-20T06:56:30.326Z,1.98
2022-11-20T06:59:00.099Z,1.75
2022-11-20T07:01:28.411Z,1.60
2022-11-20T07:03:56.825Z,1.55
2022-11-20T07:06:24.921Z,1.42
2022-11-20T07:08:53.530Z,1.40
2022-11-20T07:11:21.684Z,1.70
2022-11-20T07:13:49.864Z,1.35
2022-11-20T07:16:20.302Z,1.80
2022-11-20T07:18:50.728Z,1.60
2022-11-20T07:21:19.594Z,1.75
2022-11-20T07:23:47.928Z,1.85
2022-11-20T07:26:16.232Z,1.90
2022-11-20T07:28:48.386Z,1.35
2022-11-20T07:31:19.621Z,1.85
2022-11-20T07:33:49.497Z,2.50
2022-11-20T07:36:18.326Z,1.38
2022-11-20T07:38:46.621Z,2.38
2022-11-20T07:41:14.741Z,1.30
2022-11-20T07:43:42.821Z,1.75
2022-11-20T07:46:11.101Z,1.60
2022-11-20T07:48:39.372Z,1.73
2022-11-20T07:51:09.128Z,2.78
2022-11-20T07:53:37.300Z,1.35
2022-11-20T07:56:05.822Z,1.80
2022-11-20T07:58:35.572Z,1.45
2022-11-20T08:01:08.484Z,1.40
2022-11-20T08:03:38.837Z,1.65
2022-11-20T08:06:09.871Z,2.28
2022-11-20T08:08:42.421Z,2.38
2022-11-20T08:11:28.388Z,1.65
2022-11-20T08:14:14.547Z,2.85
2022-11-20T08:16:43.328Z,2.10
2022-11-20T08:19:11.747Z,2.08
2022-11-20T08:21:41.865Z,2.08
2022-11-20T08:24:10.656Z,2.10
2022-11-20T08:26:40.274Z,2.00
2022-11-20T08:29:08.791Z,1.65
2022-11-20T08:31:37.477Z,1.60
2022-11-20T08:34:09.220Z,1.67
2022-11-20T08:36:37.979Z,1.85
2022-11-20T08:39:07.492Z,2.13
2022-11-20T08:41:36.067Z,1.50
2022-11-20T08:44:06.142Z,2.08
2022-11-20T08:46:37.352Z,1.92
2022-11-20T08:49:05.772Z,2.42
2022-11-20T08:51:34.565Z,2.20
2022-11-20T08:54:02.934Z,1.38
2022-11-20T08:56:33.049Z,1.85
2022-11-20T08:59:22.921Z,2.17
2022-11-20T09:01:49.879Z,2.28
2022-11-20T09:04:18.262Z,2.00
2022-11-20T09:06:46.540Z,1.77
2022-11-20T09:09:14.670Z,1.98
2022-11-20T09:11:44.609Z,1.27
2022-11-20T09:14:12.865Z,1.40
2022-11-20T09:16:41.171Z,1.70
2022-11-20T09:19:34.520Z,1.40
2022-11-20T09:24:47.663Z,1.50
2022-11-20T09:27:17.205Z,1.52
2022-11-20T09:29:45.224Z,1.35
2022-11-20T09:32:13.332Z,1.85
2022-11-20T09:34:41.358Z,0.98
2022-11-20T09:37:09.469Z,1.50
2022-11-20T09:39:40.065Z,1.05
2022-11-20T09:42:34.876Z,1.25
2022-11-20T09:45:15.235Z,0.95
2022-11-20T09:48:06.595Z,1.30
2022-11-20T09:50:39.321Z,1.65
2022-11-20T09:53:15.791Z,1.05
2022-11-20T09:55:45.154Z,1.38
2022-11-20T09:58:25.212Z,1.45
2022-11-20T10:00:57.451Z,0.90
2022-11-20T10:03:38.967Z,0.90
2022-11-20T10:06:11.071Z,0.95
2022-11-20T10:08:44.469Z,0.95
2022-11-20T10:11:19.709Z,0.88
2022-11-20T10:13:58.747Z,1.02
2022-11-20T10:16:41.129Z,0.82
2022-11-20T10:19:24.727Z,1.13
2022-11-20T10:22:05.979Z,0.93
2022-11-20T10:24:57.138Z,0.73
2022-11-20T10:27:42.615Z,0.57
2022-11-20T10:30:14.465Z,0.70
2022-11-20T10:32:45.199Z,1.10
2022-11-20T10:35:23.735Z,1.05
2022-11-20T10:37:55.501Z,1.25
2022-11-20T10:40:31.125Z,1.63
2022-11-20T10:43:04.079Z,1.10
2022-11-20T10:45:46.679Z,0.80
2022-11-20T10:48:19.054Z,0.60
2022-11-20T10:50:57.619Z,1.30
2022-11-20T10:53:47.849Z,1.25
2022-11-20T10:56:24.027Z,0.60
2022-11-20T10:59:10.907Z,0.70
2022-11-20T11:01:44.502Z,0.68
2022-11-20T11:04:31.326Z,0.70
2022-11-20T11:07:08.408Z,0.60
2022-11-20T11:09:41.310Z,0.50
2022-11-20T11:12:11.095Z,0.80
2022-11-20T11:14:50.423Z,0.60
2022-11-20T11:17:31.416Z,0.60
2022-11-20T11:20:05.850Z,0.80
2022-11-20T11:22:35.527Z,0.60
2022-11-20T11:25:04.178Z,0.85
2022-11-20T11:27:32.449Z,0.28
2022-11-20T11:30:16.333Z,0.63
2022-11-20T11:32:46.209Z,0.95
2022-11-20T11:35:24.424Z,0.40
2022-11-20T11:37:55.168Z,0.30
2022-11-20T11:40:28.126Z,0.68
2022-11-20T11:42:59.830Z,0.80
2022-11-20T11:45:27.479Z,0.50
2022-11-20T11:47:59.694Z,0.40
2022-11-20T11:50:29.037Z,0.03
2022-11-20T11:53:06.302Z,0.30
2022-11-20T11:55:39.046Z,0.10
2022-11-20T11:58:22.535Z,0.20
2022-11-20T12:00:58.595Z,0.20
2022-11-20T12:03:36.751Z,0.13
2022-11-20T12:06:11.273Z,0.20
2022-11-20T12:08:47.355Z,0.40
2022-11-20T12:11:22.234Z,0.20
2022-11-20T12:13:56.422Z,0.50
2022-11-20T12:16:25.178Z,0.25
2022-11-20T12:18:56.175Z,0.47
2022-11-20T12:21:33.664Z,0.20
2022-11-20T12:24:34.453Z,0.38
2022-11-20T12:27:30.295Z,0.30
2022-11-20T12:30:03.994Z,0.13
2022-11-20T12:33:06.976Z,0.30
2022-11-20T12:35:50.094Z,0.32
2022-11-20T12:38:42.381Z,0.25
2022-11-20T12:41:39.846Z,0.30
2022-11-20T12:44:36.231Z,0.20
2022-11-20T12:47:15.984Z,0.30
2022-11-20T12:49:50.815Z,0.50
2022-11-20T12:52:39.569Z,0.40
2022-11-20T12:55:28.246Z,0.50
2022-11-20T12:58:00.415Z,0.68
2022-11-20T13:00:28.899Z,0.57
2022-11-20T13:03:12.933Z,0.57
2022-11-20T13:05:51.738Z,0.65
2022-11-20T13:08:26.658Z,0.55
2022-11-20T13:11:02.308Z,0.50
2022-11-20T13:13:39.335Z,0.63
2022-11-20T13:16:14.621Z,0.65
2022-11-20T13:18:46.417Z,0.47
2022-11-20T13:21:20.027Z,0.60
2022-11-20T13:23:51.832Z,0.40
2022-11-20T13:26:22.947Z,0.30
2022-11-20T13:29:05.235Z,0.25
2022-11-20T13:31:36.101Z,0.45
2022-11-20T13:34:07.369Z,0.50
2022-11-20T13:36:51.953Z,0.55
2022-11-20T13:39:28.691Z,0.40
2022-11-20T13:41:59.015Z,0.60
2022-11-20T13:44:31.697Z,0.60
2022-11-20T13:46:59.948Z,0.65
2022-11-20T13:49:32.032Z,0.52
2022-11-20T13:52:11.194Z,0.52
2022-11-20T13:55:14.697Z,0.43
2022-11-20T13:57:57.740Z,0.60
2022-11-20T14:00:39.120Z,0.70
2022-11-20T14:03:15.880Z,0.57
2022-11-20T14:05:53.938Z,0.70
2022-11-20T14:08:34.900Z,1.15
2022-11-20T14:11:17.637Z,0.50
2022-11-20T14:14:00.294Z,0.40
2022-11-20T14:16:30.050Z,0.80
2022-11-20T14:19:00.083Z,0.25
2022-11-20T14:21:37.813Z,0.32
2022-11-20T14:24:06.877Z,0.50
2022-11-20T14:26:36.417Z,0.73
2022-11-20T14:29:04.571Z,0.50
2022-11-20T14:31:33.219Z,0.63
2022-11-20T14:34:01.426Z,0.63
2022-11-20T14:36:30.114Z,0.95
2022-11-20T14:39:02.858Z,0.90
2022-11-20T14:41:33.283Z,0.47
2022-11-20T14:44:03.796Z,0.90
2022-11-20T14:46:33.624Z,0.95
2022-11-20T14:49:05.275Z,1.30
2022-11-20T14:51:35.886Z,0.90
2022-11-20T14:54:15.742Z,0.93
2022-11-20T14:56:43.967Z,0.60
2022-11-20T14:59:13.558Z,0.98
2022-11-20T15:01:41.677Z,0.75
2022-11-20T15:04:13.319Z,1.15
2022-11-20T15:06:52.566Z,1.35
2022-11-20T15:09:20.638Z,1.00
2022-11-20T15:11:57.460Z,1.13
2022-11-20T15:14:28.418Z,1.40
2022-11-20T15:16:57.202Z,0.82
2022-11-20T15:19:27.233Z,0.98
2022-11-20T15:21:55.642Z,0.90
2022-11-20T15:24:23.819Z,1.65
2022-11-20T15:26:52.100Z,1.65
2022-11-20T15:29:22.019Z,1.10
2022-11-20T15:31:52.060Z,1.15
2022-11-20T15:34:20.690Z,0.60
2022-11-20T15:36:48.807Z,1.30
2022-11-20T15:39:16.883Z,1.15
2022-11-20T15:41:44.955Z,0.75
2022-11-20T15:44:13.217Z,1.17
2022-11-20T15:46:45.556Z,1.60
2022-11-20T15:49:16.747Z,1.98
2022-11-20T15:51:47.418Z,1.20
2022-11-20T15:54:18.580Z,2.20
2022-11-20T15:56:46.622Z,1.70
2022-11-20T15:59:15.919Z,5.63
2022-11-20T16:01:44.402Z,3.87
2022-11-20T16:04:15.984Z,3.33
2022-11-20T16:06:44.084Z,2.47
2022-11-20T16:09:12.226Z,3.65
2022-11-20T16:11:40.815Z,1.65
2022-11-20T16:14:26.453Z,1.65
2022-11-20T16:16:54.660Z,1.58
2022-11-20T16:19:24.180Z,2.90
2022-11-20T16:21:52.459Z,1.75
2022-11-20T16:24:20.987Z,1.50
2022-11-20T16:26:49.778Z,1.70
2022-11-20T16:29:17.854Z,1.50
2022-11-20T16:31:45.965Z,1.35
2022-11-20T16:34:14.051Z,1.80
2022-11-20T16:36:45.997Z,1.25
2022-11-20T16:39:17.780Z,1.23
2022-11-20T16:42:53.788Z,1.92
2022-11-20T16:45:33.940Z,2.28
2022-11-20T16:48:02.379Z,2.90
2022-11-20T16:50:30.640Z,1.92
2022-11-20T16:53:02.863Z,2.15
2022-11-20T16:55:30.926Z,3.17
2022-11-20T16:57:59.100Z,1.98
2022-11-20T17:00:27.173Z,2.53
2022-11-20T17:02:55.876Z,2.85
2022-11-20T17:05:23.960Z,1.70
2022-11-20T17:07:52.143Z,2.47
2022-11-20T17:10:22.245Z,3.25
2022-11-20T17:12:50.382Z,3.13
2022-11-20T17:15:18.493Z,3.25
2022-11-20T17:17:50.049Z,4.70
2022-11-20T17:20:18.258Z,2.30
2022-11-20T17:22:46.405Z,2.90
2022-11-20T17:25:14.396Z,5.35
2022-11-20T17:27:43.789Z,4.85
2022-11-20T17:30:12.180Z,3.85
2022-11-20T17:32:45.966Z,3.72
2022-11-20T17:35:38.142Z,3.50
2022-11-20T17:38:07.290Z,3.97
2022-11-20T17:40:35.480Z,5.25
2022-11-20T17:43:04.979Z,4.97
2022-11-20T17:45:33.166Z,7.38
2022-11-20T17:48:01.299Z,5.20
2022-11-20T17:50:29.614Z,3.20
2022-11-20T17:52:57.629Z,4.15
2022-11-20T17:55:25.616Z,4.85
2022-11-20T17:58:02.848Z,3.75
2022-11-20T18:00:32.373Z,3.00
2022-11-20T18:03:00.968Z,3.10
2022-11-20T18:05:28.951Z,2.25
2022-11-20T18:07:57.088Z,2.80
2022-11-20T18:10:25.118Z,1.92
2022-11-20T18:12:53.933Z,2.70
2022-11-20T18:15:21.957Z,2.47
2022-11-20T18:17:51.416Z,2.28
2022-11-20T18:20:39.613Z,3.45
2022-11-20T18:23:08.186Z,2.38
2022-11-20T18:25:36.243Z,2.88
2022-11-20T18:28:04.375Z,3.55
2022-11-20T18:30:32.452Z,4.07
2022-11-20T18:33:06.118Z,3.00
2022-11-20T18:35:34.362Z,3.55
2022-11-20T18:38:02.572Z,3.08
2022-11-20T18:40:31.142Z,3.65
2022-11-20T18:43:16.333Z,6.05
2022-11-20T18:45:44.623Z,5.65
2022-11-20T18:48:14.028Z,5.20
2022-11-20T18:50:42.049Z,3.72
2022-11-20T18:53:10.095Z,4.57
2022-11-20T18:55:38.104Z,4.57
2022-11-20T18:58:09.500Z,5.05
2022-11-20T19:00:40.469Z,4.45
2022-11-20T19:03:08.478Z,4.78
2022-11-20T19:05:38.934Z,3.30
2022-11-20T19:08:07.137Z,4.78
2022-11-20T19:10:35.270Z,4.68
2022-11-20T19:13:03.299Z,4.50
2022-11-20T19:15:31.358Z,4.80
2022-11-20T19:18:01.330Z,5.38
2022-11-20T19:20:29.383Z,7.25
2022-11-20T19:22:58.819Z,6.63
2022-11-20T19:25:28.012Z,9.95
2022-11-20T19:27:56.024Z,16.17
2022-11-20T19:30:24.112Z,11.20
2022-11-20T19:32:52.074Z,7.88
2022-11-20T19:35:20.087Z,7.70
2022-11-20T19:37:48.101Z,5.68
2022-11-20T19:40:26.360Z,4.85
2022-11-20T19:42:54.744Z,4.72
2022-11-20T19:45:22.829Z,4.50
2022-11-20T19:48:07.946Z,3.92
2022-11-20T19:50:36.442Z,4.20
2022-11-20T19:53:04.410Z,3.92
2022-11-20T19:55:34.215Z,4.15
2022-11-20T19:58:03.310Z,4.57
2022-11-20T20:00:32.997Z,6.18
2022-11-20T20:03:01.404Z,5.68
2022-11-20T20:05:30.316Z,4.28
2022-11-20T20:07:58.460Z,7.18
2022-11-20T20:10:26.472Z,4.63
2022-11-20T20:12:56.088Z,5.60
2022-11-20T20:15:24.279Z,7.00
2022-11-20T20:17:53.148Z,12.32
2022-11-20T20:20:24.981Z,20.83
2022-11-20T20:22:53.458Z,16.52
2022-11-20T20:25:21.476Z,8.90
2022-11-20T20:27:49.442Z,8.73
2022-11-20T20:30:19.359Z,7.47
2022-11-20T20:32:50.754Z,8.68
2022-11-20T20:35:21.490Z,7.07
2022-11-20T20:37:49.514Z,10.05
2022-11-20T20:40:19.008Z,11.27
2022-11-20T20:42:47.051Z,16.70
2022-11-20T20:45:15.173Z,15.80
2022-11-20T20:47:44.630Z,12.57
2022-11-20T20:50:13.767Z,7.57
2022-11-20T20:52:46.399Z,7.93
2022-11-20T20:55:14.479Z,7.38
2022-11-20T20:57:42.680Z,8.07
2022-11-20T21:00:11.526Z,8.80
2022-11-20T21:06:33.966Z,9.82
2022-11-20T21:09:01.944Z,8.18
2022-11-20T21:11:30.004Z,6.53
2022-11-20T21:13:58.032Z,7.07
2022-11-20T21:16:26.575Z,5.32
2022-11-20T21:18:54.695Z,5.30
2022-11-20T21:21:40.397Z,4.20
2022-11-20T21:24:10.401Z,7.20
2022-11-20T21:26:38.450Z,6.45
2022-11-20T21:29:06.406Z,5.15
2022-11-20T21:31:34.463Z,4.45
2022-11-20T21:34:02.551Z,5.07
2022-11-20T21:36:32.137Z,4.30
2022-11-20T21:39:00.554Z,4.57
2022-11-20T21:41:31.517Z,5.82
2022-11-20T21:46:48.882Z,5.32
2022-11-20T21:49:18.312Z,4.88
2022-11-20T21:51:46.354Z,6.15
2022-11-20T21:54:14.426Z,4.75
2022-11-20T21:56:43.745Z,5.10
2022-11-20T21:59:14.016Z,7.30
2022-11-20T22:01:42.276Z,5.18
2022-11-20T22:04:15.025Z,6.43
2022-11-20T22:06:43.017Z,5.90
2022-11-20T22:09:11.891Z,5.55
2022-11-20T22:11:39.891Z,5.40
2022-11-20T22:14:23.489Z,5.35
2022-11-20T22:16:53.485Z,3.63
2022-11-20T22:19:22.780Z,2.88
2022-11-20T22:21:51.773Z,3.37
2022-11-20T22:24:21.591Z,3.70
2022-11-20T22:26:50.173Z,3.42
2022-11-20T22:29:21.963Z,2.50
2022-11-20T22:31:52.420Z,2.80
2022-11-20T22:34:20.858Z,2.67
2022-11-20T22:36:49.079Z,2.42
2022-11-20T22:39:17.673Z,2.00
2022-11-20T22:41:45.735Z,2.45
2022-11-20T22:44:17.181Z,2.55
2022-11-20T22:46:46.577Z,2.13
2022-11-20T22:49:14.893Z,2.17
2022-11-20T22:51:43.468Z,2.78
2022-11-20T22:54:12.865Z,1.77
2022-11-20T22:56:40.945Z,2.40
2022-11-20T22:59:09.069Z,2.05
2022-11-20T23:01:38.109Z,2.53
2022-11-20T23:04:11.108Z,2.30
2022-11-20T23:06:39.597Z,1.80
2022-11-20T23:09:08.959Z,1.60
2022-11-20T23:11:37.295Z,1.65
2022-11-20T23:14:07.275Z,1.55
2022-11-20T23:16:35.891Z,1.38
2022-11-20T23:19:05.789Z,1.92
2022-11-20T23:21:35.746Z,1.42
2022-11-20T23:24:03.992Z,2.85
2022-11-20T23:26:36.485Z,1.50
2022-11-20T23:29:06.466Z,2.55
2022-11-20T23:31:35.814Z,1.90
2022-11-20T23:34:04.426Z,1.60
2022-11-20T23:36:34.136Z,1.63
2022-11-20T23:39:02.086Z,1.77
2022-11-20T23:41:30.072Z,2.28
2022-11-20T23:43:58.037Z,2.33
2022-11-20T23:46:26.028Z,2.10
2022-11-20T23:48:54.006Z,2.10
2022-11-20T23:51:22.062Z,1.60
2022-11-20T23:53:51.435Z,1.80
2022-11-20T23:56:19.394Z,2.55
2022-11-20T23:58:47.592Z,2.13
